createdAt,value
2023-04-18T00:00:35.100Z,51849.09
2023-04-18T00:03:04.697Z,51875.19
2023-04-18T00:05:33.527Z,51861.13
2023-04-18T00:08:01.905Z,51855.13
2023-04-18T00:10:30.289Z,51841.06
2023-04-18T00:13:00.415Z,51893.25
2023-04-18T00:15:30.403Z,51897.25
2023-04-18T00:18:00.740Z,51851.09
2023-04-18T00:20:29.258Z,51889.22
2023-04-18T00:22:57.927Z,51897.25
2023-04-18T00:25:26.462Z,51883.22
2023-04-18T00:27:55.003Z,51903.28
2023-04-18T00:30:23.694Z,51887.22
2023-04-18T00:32:53.479Z,51877.19
2023-04-18T00:35:22.050Z,51915.31
2023-04-18T00:37:50.920Z,51853.13
2023-04-18T00:40:19.609Z,51903.28
2023-04-18T00:42:48.046Z,51881.19
2023-04-18T00:45:16.466Z,51911.28
2023-04-18T00:47:45.102Z,51911.28
2023-04-18T00:50:16.161Z,51909.28
2023-04-18T00:52:45.143Z,51891.22
2023-04-18T00:55:13.570Z,51913.31
2023-04-18T00:57:43.116Z,51915.31
2023-04-18T01:00:12.656Z,51925.34
2023-04-18T01:02:42.358Z,51955.44
2023-04-18T01:05:13.315Z,51919.31
2023-04-18T01:07:44.083Z,51925.34
2023-04-18T01:10:12.618Z,51915.31
2023-04-18T01:12:42.062Z,51955.44
2023-04-18T01:15:11.794Z,51945.41
2023-04-18T01:17:40.736Z,51911.28
2023-04-18T01:20:10.577Z,51929.34
2023-04-18T01:22:39.263Z,51905.28
2023-04-18T01:25:12.327Z,51909.28
2023-04-18T01:27:40.936Z,51931.34
2023-04-18T01:30:10.778Z,51897.25
2023-04-18T01:32:39.216Z,51961.44
2023-04-18T01:35:09.053Z,51953.44
2023-04-18T01:37:37.614Z,51913.31
2023-04-18T01:40:07.118Z,51953.44
2023-04-18T01:42:36.944Z,51965.47
2023-04-18T01:45:07.462Z,51965.47
2023-04-18T01:47:36.060Z,51931.34
2023-04-18T01:50:05.307Z,51965.47
2023-04-18T01:52:33.790Z,51937.38
2023-04-18T01:55:03.849Z,51993.56
2023-04-18T01:57:33.128Z,51935.38
2023-04-18T02:00:04.584Z,51939.38
2023-04-18T02:02:43.401Z,51969.47
2023-04-18T02:05:12.188Z,51929.34
2023-04-18T02:07:42.720Z,51935.38
2023-04-18T02:10:12.186Z,51975.50
2023-04-18T02:12:40.790Z,51957.44
2023-04-18T02:15:11.909Z,51951.41
2023-04-18T02:17:41.636Z,51937.38
2023-04-18T02:20:11.290Z,51977.50
2023-04-18T02:22:40.055Z,51969.47
2023-04-18T02:25:09.080Z,51987.53
2023-04-18T02:27:38.374Z,51965.47
2023-04-18T02:30:08.380Z,51941.38
2023-04-18T02:32:38.271Z,51965.47
2023-04-18T02:35:07.476Z,51969.47
2023-04-18T02:37:35.875Z,51981.50
2023-04-18T02:40:05.607Z,51963.47
2023-04-18T02:42:34.097Z,51973.50
2023-04-18T02:45:03.560Z,51993.56
2023-04-18T02:47:40.535Z,51985.53
2023-04-18T02:50:20.158Z,52005.59
2023-04-18T02:52:48.716Z,51973.50
2023-04-18T02:55:19.215Z,51967.47
2023-04-18T02:57:48.321Z,51971.47
2023-04-18T03:00:42.599Z,51957.44
2023-04-18T03:03:33.749Z,51983.53
2023-04-18T03:06:22.050Z,51977.50
2023-04-18T03:08:50.627Z,51993.56
2023-04-18T03:11:19.333Z,52005.59
2023-04-18T03:13:48.116Z,51991.53
2023-04-18T03:16:16.951Z,51975.50
2023-04-18T03:18:45.871Z,51979.50
2023-04-18T03:21:14.971Z,51991.53
2023-04-18T03:23:45.237Z,52007.59
2023-04-18T03:26:14.125Z,52027.66
2023-04-18T03:28:44.138Z,52023.63
2023-04-18T03:31:12.972Z,51989.53
2023-04-18T03:33:45.630Z,52001.56
2023-04-18T03:36:17.289Z,52007.59
2023-04-18T03:38:47.402Z,52007.59
2023-04-18T03:41:15.883Z,51967.47
2023-04-18T03:43:44.339Z,51977.50
2023-04-18T03:46:13.583Z,52033.69
2023-04-18T03:48:42.272Z,52029.66
2023-04-18T03:51:13.406Z,51995.56
2023-04-18T03:53:42.672Z,52009.59
2023-04-18T03:56:12.701Z,52033.69
2023-04-18T03:58:50.091Z,52011.59
2023-04-18T04:01:20.312Z,52061.75
2023-04-18T04:03:49.129Z,52013.63
2023-04-18T04:06:18.801Z,52037.69
2023-04-18T04:08:47.449Z,52045.72
2023-04-18T04:11:24.587Z,51975.50
2023-04-18T04:13:53.314Z,52041.69
2023-04-18T04:16:26.111Z,51985.53
2023-04-18T04:18:56.727Z,52029.66
2023-04-18T04:21:32.290Z,52053.75
2023-04-18T04:24:01.312Z,52063.78
2023-04-18T04:26:40.023Z,52025.66
2023-04-18T04:29:15.162Z,52037.69
2023-04-18T04:31:45.885Z,52065.78
2023-04-18T04:34:18.113Z,52065.78
2023-04-18T04:36:47.900Z,52039.69
2023-04-18T04:39:17.366Z,52051.72
2023-04-18T04:42:19.773Z,52029.66
2023-04-18T04:45:04.122Z,52045.72
2023-04-18T04:47:32.973Z,52073.81
2023-04-18T04:50:01.485Z,52033.69
2023-04-18T04:52:29.947Z,52079.81
2023-04-18T04:54:58.451Z,52005.59
2023-04-18T04:57:29.354Z,52019.63
2023-04-18T04:59:57.807Z,52009.59
2023-04-18T05:02:26.620Z,52093.88
2023-04-18T05:04:55.372Z,51997.56
2023-04-18T05:07:23.832Z,52001.56
2023-04-18T05:09:53.169Z,52003.59
2023-04-18T05:12:21.703Z,52035.69
2023-04-18T05:14:51.508Z,52007.59
2023-04-18T05:17:20.173Z,51997.56
2023-04-18T05:19:48.700Z,51989.53
2023-04-18T05:22:17.151Z,52019.63
2023-04-18T05:24:46.831Z,52019.63
2023-04-18T05:27:17.211Z,52011.59
2023-04-18T05:29:47.716Z,51975.50
2023-04-18T05:32:18.098Z,52013.63
2023-04-18T05:34:46.844Z,52017.63
2023-04-18T05:37:15.292Z,51983.53
2023-04-18T05:39:43.820Z,52005.59
2023-04-18T05:42:12.204Z,51973.50
2023-04-18T05:44:40.623Z,51993.56
2023-04-18T05:47:09.008Z,51919.31
2023-04-18T05:49:38.692Z,51957.44
2023-04-18T05:52:06.999Z,51933.38
2023-04-18T05:54:35.730Z,51977.50
2023-04-18T05:57:04.683Z,51911.28
2023-04-18T05:59:33.280Z,51903.28
2023-04-18T06:02:01.844Z,51909.28
2023-04-18T06:04:30.440Z,51865.16
2023-04-18T06:07:00.250Z,51841.06
2023-04-18T06:09:28.687Z,51845.09
2023-04-18T06:11:57.758Z,51780.91
2023-04-18T06:14:26.586Z,51742.78
2023-04-18T06:16:55.272Z,51748.78
2023-04-18T06:19:23.604Z,51728.72
2023-04-18T06:21:51.969Z,51680.59
2023-04-18T06:24:21.774Z,51656.50
2023-04-18T06:26:50.309Z,51654.50
2023-04-18T06:29:18.951Z,51656.50
2023-04-18T06:31:48.364Z,51656.50
2023-04-18T06:34:17.441Z,51664.53
2023-04-18T06:36:45.785Z,51720.72
2023-04-18T06:39:14.162Z,51670.56
2023-04-18T06:41:43.915Z,51716.69
2023-04-18T06:44:12.345Z,51632.44
2023-04-18T06:46:40.705Z,51676.56
2023-04-18T06:49:09.129Z,51598.34
2023-04-18T06:51:37.482Z,51588.31
2023-04-18T06:54:05.947Z,51564.25
2023-04-18T06:56:36.338Z,51520.09
2023-04-18T06:59:06.434Z,51514.09
2023-04-18T07:01:34.877Z,51488.00
2023-04-18T07:04:03.340Z,51514.09
2023-04-18T07:06:31.828Z,51510.06
2023-04-18T07:09:01.468Z,51540.16
2023-04-18T07:11:29.933Z,51520.09
2023-04-18T07:13:58.326Z,51500.03
2023-04-18T07:16:28.119Z,51469.97
2023-04-18T07:18:56.723Z,51538.16
2023-04-18T07:21:25.539Z,51494.03
2023-04-18T07:23:53.952Z,51496.03
2023-04-18T07:26:22.567Z,51473.97
2023-04-18T07:28:50.928Z,51455.91
2023-04-18T07:31:19.381Z,51431.84
2023-04-18T07:33:49.230Z,51387.72
2023-04-18T07:36:18.064Z,51425.81
2023-04-18T07:38:46.681Z,51421.81
2023-04-18T07:41:15.007Z,51407.78
2023-04-18T07:43:45.135Z,51451.91
2023-04-18T07:46:13.555Z,51415.78
2023-04-18T07:48:42.293Z,51363.63
2023-04-18T07:51:12.456Z,51365.66
2023-04-18T07:53:43.310Z,51315.50
2023-04-18T07:56:12.660Z,51357.63
2023-04-18T07:58:41.035Z,51289.41
2023-04-18T08:01:13.383Z,51399.75
2023-04-18T08:03:42.038Z,51399.75
2023-04-18T08:06:12.267Z,51425.81
2023-04-18T08:08:40.599Z,51359.63
2023-04-18T08:11:09.034Z,51447.88
2023-04-18T08:13:37.460Z,51331.53
2023-04-18T08:16:06.150Z,51357.63
2023-04-18T08:18:34.514Z,51319.50
2023-04-18T08:21:02.890Z,51331.53
2023-04-18T08:23:32.602Z,51267.34
2023-04-18T08:26:01.051Z,51297.44
2023-04-18T08:28:29.387Z,51377.69
2023-04-18T08:30:57.814Z,51273.38
2023-04-18T08:33:26.302Z,51245.28
2023-04-18T08:35:54.847Z,51323.53
2023-04-18T08:38:23.235Z,51417.81
2023-04-18T08:40:52.944Z,51471.97
2023-04-18T08:43:21.337Z,51339.56
2023-04-18T08:45:50.404Z,51429.84
2023-04-18T08:48:19.704Z,51524.13
2023-04-18T08:50:48.056Z,51319.50
2023-04-18T08:53:17.708Z,51347.59
2023-04-18T08:55:47.610Z,51500.03
2023-04-18T08:58:22.231Z,51369.66
2023-04-18T09:00:52.014Z,51349.59
2023-04-18T09:03:37.274Z,51355.63
2023-04-18T09:06:12.315Z,51349.59
2023-04-18T09:08:43.482Z,51415.78
2023-04-18T09:11:25.931Z,51395.72
2023-04-18T09:13:58.654Z,51471.97
2023-04-18T09:16:28.232Z,51477.97
2023-04-18T09:19:11.716Z,51407.78
2023-04-18T09:21:41.875Z,51482.00
2023-04-18T09:24:23.547Z,51564.25
2023-04-18T09:26:58.805Z,51528.13
2023-04-18T09:29:46.636Z,51514.09
2023-04-18T09:32:24.955Z,51526.13
2023-04-18T09:34:57.865Z,51574.28
2023-04-18T09:37:27.192Z,51580.28
2023-04-18T09:39:56.076Z,51588.31
2023-04-18T09:42:26.698Z,51608.38
2023-04-18T09:45:03.669Z,51624.41
2023-04-18T09:47:36.829Z,51598.34
2023-04-18T09:50:06.274Z,51572.25
2023-04-18T09:52:36.830Z,51586.31
2023-04-18T09:55:06.669Z,51618.41
2023-04-18T09:57:36.523Z,51556.22
2023-04-18T10:00:19.749Z,51562.22
2023-04-18T10:02:53.407Z,51510.06
2023-04-18T10:05:26.777Z,51463.94
2023-04-18T10:07:55.780Z,51520.09
2023-04-18T10:10:24.877Z,51530.13
2023-04-18T10:12:56.084Z,51580.28
2023-04-18T10:15:28.594Z,51514.09
2023-04-18T10:18:04.431Z,51508.06
2023-04-18T10:20:35.746Z,51335.56
2023-04-18T10:23:35.594Z,51345.59
2023-04-18T10:26:05.066Z,51327.53
2023-04-18T10:28:53.135Z,51381.69
2023-04-18T10:31:24.432Z,51403.75
2023-04-18T10:34:04.042Z,51469.97
2023-04-18T10:36:34.010Z,51465.94
2023-04-18T10:39:04.595Z,51488.00
2023-04-18T10:41:34.540Z,51219.22
2023-04-18T10:44:18.210Z,51401.75
2023-04-18T10:47:31.730Z,51141.00
2023-04-18T10:50:06.981Z,51327.53
2023-04-18T10:52:35.977Z,51393.72
2023-04-18T10:55:20.248Z,51207.19
2023-04-18T10:57:50.430Z,51305.47
2023-04-18T11:00:21.428Z,51259.34
2023-04-18T11:02:52.783Z,51229.25
2023-04-18T11:05:24.915Z,51227.25
2023-04-18T11:07:54.179Z,51207.19
2023-04-18T11:10:25.379Z,51229.25
2023-04-18T11:12:54.635Z,51145.00
2023-04-18T11:15:25.454Z,51239.28
2023-04-18T11:17:59.448Z,51295.44
2023-04-18T11:20:29.915Z,51171.06
2023-04-18T11:22:59.719Z,51427.84
2023-04-18T11:25:30.251Z,51443.88
2023-04-18T11:28:00.638Z,51439.88
2023-04-18T11:30:31.322Z,51490.00
2023-04-18T11:32:59.976Z,51508.06
2023-04-18T11:35:30.526Z,51441.88
2023-04-18T11:37:59.257Z,51417.81
2023-04-18T11:40:27.821Z,51419.81
2023-04-18T11:42:56.670Z,51391.72
2023-04-18T11:45:25.217Z,51183.13
2023-04-18T11:47:56.983Z,51301.47
2023-04-18T11:50:26.799Z,51116.91
2023-04-18T11:52:57.654Z,51345.59
2023-04-18T11:55:27.247Z,51429.84
2023-04-18T11:57:57.055Z,51393.72
2023-04-18T12:00:34.135Z,51269.38
2023-04-18T12:03:04.813Z,51199.16
2023-04-18T12:05:35.882Z,51153.03
2023-04-18T12:08:11.744Z,51094.84
2023-04-18T12:10:47.283Z,51179.09
2023-04-18T12:13:15.870Z,51347.59
2023-04-18T12:15:45.751Z,51317.50
2023-04-18T12:18:15.712Z,51363.63
2023-04-18T12:20:50.257Z,51335.56
2023-04-18T12:23:34.320Z,51173.09
2023-04-18T12:26:04.152Z,51175.09
2023-04-18T12:28:34.364Z,51120.94
2023-04-18T12:31:05.508Z,51118.94
2023-04-18T12:33:35.829Z,51050.72
2023-04-18T12:36:05.647Z,51185.13
2023-04-18T12:38:36.513Z,51269.38
2023-04-18T12:41:05.415Z,51287.41
2023-04-18T12:43:34.014Z,51343.59
2023-04-18T12:46:04.108Z,51391.72
2023-04-18T12:48:33.287Z,51427.84
2023-04-18T12:51:01.748Z,51237.28
2023-04-18T12:53:30.477Z,51287.41
2023-04-18T12:56:00.411Z,51325.53
2023-04-18T12:58:28.947Z,51369.66
2023-04-18T13:00:57.706Z,51447.88
2023-04-18T13:03:26.633Z,51437.84
2023-04-18T13:05:55.473Z,51429.84
2023-04-18T13:08:24.046Z,51479.97
2023-04-18T13:10:52.849Z,51431.84
2023-04-18T13:13:22.670Z,51427.84
2023-04-18T13:15:52.229Z,51461.94
2023-04-18T13:18:20.904Z,51467.94
2023-04-18T13:20:50.301Z,51443.88
2023-04-18T13:23:18.967Z,51443.88
2023-04-18T13:25:47.563Z,51439.88
2023-04-18T13:28:16.063Z,51375.69
2023-04-18T13:30:46.003Z,51407.78
2023-04-18T13:33:15.387Z,51449.91
2023-04-18T13:35:43.842Z,51453.91
2023-04-18T13:38:12.332Z,51467.94
2023-04-18T13:40:40.743Z,51439.88
2023-04-18T13:43:10.861Z,51526.13
2023-04-18T13:45:39.481Z,51477.97
2023-04-18T13:48:09.459Z,51465.94
2023-04-18T13:50:37.999Z,51463.94
2023-04-18T13:53:06.530Z,51475.97
2023-04-18T13:55:35.920Z,51510.06
2023-04-18T13:58:04.925Z,51484.00
2023-04-18T14:00:33.619Z,51492.03
2023-04-18T14:03:02.509Z,51496.03
2023-04-18T14:05:32.838Z,51506.06
2023-04-18T14:08:03.957Z,51486.00
2023-04-18T14:10:54.399Z,51397.75
2023-04-18T14:13:23.294Z,51411.78
2023-04-18T14:15:53.714Z,51427.84
2023-04-18T14:18:23.541Z,51443.88
2023-04-18T14:20:53.385Z,51477.97
2023-04-18T14:23:22.929Z,51492.03
2023-04-18T14:25:51.632Z,51479.97
2023-04-18T14:28:23.585Z,51439.88
2023-04-18T14:30:52.776Z,51439.88
2023-04-18T14:33:21.580Z,51429.84
2023-04-18T14:35:50.158Z,51447.88
2023-04-18T14:38:20.517Z,51419.81
2023-04-18T14:40:51.964Z,51449.91
2023-04-18T14:43:20.451Z,51471.97
2023-04-18T14:45:48.846Z,51475.97
2023-04-18T14:48:17.577Z,51526.13
2023-04-18T14:50:46.028Z,51508.06
2023-04-18T14:53:14.512Z,51528.13
2023-04-18T14:55:45.889Z,51484.00
2023-04-18T14:58:14.766Z,51488.00
2023-04-18T15:00:43.138Z,51522.13
2023-04-18T15:03:11.882Z,51512.09
2023-04-18T15:05:42.874Z,51504.06
2023-04-18T15:08:11.795Z,51508.06
2023-04-18T15:10:42.212Z,51498.03
2023-04-18T15:13:12.229Z,51475.97
2023-04-18T15:15:41.014Z,51486.00
2023-04-18T15:18:11.125Z,51528.13
2023-04-18T15:20:40.284Z,51536.16
2023-04-18T15:23:09.890Z,51514.09
2023-04-18T15:25:38.534Z,51518.09
2023-04-18T15:28:07.895Z,51540.16
2023-04-18T15:30:38.119Z,51490.00
2023-04-18T15:33:06.669Z,51548.19
2023-04-18T15:35:35.726Z,51492.03
2023-04-18T15:38:04.284Z,51538.16
2023-04-18T15:40:33.510Z,51552.19
2023-04-18T15:43:02.002Z,51538.16
2023-04-18T15:45:30.625Z,51524.13
2023-04-18T15:48:00.479Z,51534.16
2023-04-18T15:50:30.309Z,51576.28
2023-04-18T15:52:59.944Z,51530.13
2023-04-18T15:55:29.249Z,51556.22
2023-04-18T16:01:15.861Z,51544.19
2023-04-18T16:03:45.929Z,51560.22
2023-04-18T16:06:17.814Z,51576.28
2023-04-18T16:08:46.569Z,51540.16
2023-04-18T16:11:15.766Z,51564.25
2023-04-18T16:13:44.441Z,51544.19
2023-04-18T16:16:13.116Z,51584.28
2023-04-18T16:18:41.659Z,51536.16
2023-04-18T16:21:14.176Z,51484.00
2023-04-18T16:23:42.991Z,51546.19
2023-04-18T16:26:11.876Z,51524.13
2023-04-18T16:28:43.178Z,51554.22
2023-04-18T16:31:11.794Z,51516.09
2023-04-18T16:33:40.417Z,51538.16
2023-04-18T16:36:10.185Z,51564.25
2023-04-18T16:38:39.940Z,51500.03
2023-04-18T16:41:08.345Z,51518.09
2023-04-18T16:43:37.936Z,51544.19
2023-04-18T16:46:06.832Z,51560.22
2023-04-18T16:48:37.744Z,51572.25
2023-04-18T16:51:06.708Z,51524.13
2023-04-18T16:53:36.027Z,51526.13
2023-04-18T16:56:07.893Z,51552.19
2023-04-18T16:58:36.393Z,51588.31
2023-04-18T17:01:05.229Z,51528.13
2023-04-18T17:03:33.955Z,51610.38
2023-04-18T17:06:02.569Z,51618.41
2023-04-18T17:08:32.831Z,51598.34
2023-04-18T17:11:02.298Z,51556.22
2023-04-18T17:13:32.585Z,51574.28
2023-04-18T17:16:01.288Z,51580.28
2023-04-18T17:18:29.879Z,51584.28
2023-04-18T17:20:58.371Z,51610.38
2023-04-18T17:23:26.861Z,51542.16
2023-04-18T17:25:55.749Z,51582.28
2023-04-18T17:28:25.109Z,51572.25
2023-04-18T17:30:57.238Z,51594.31
2023-04-18T17:33:25.731Z,51612.38
2023-04-18T17:35:54.157Z,51588.31
2023-04-18T17:38:22.494Z,51586.31
2023-04-18T17:40:59.580Z,51562.22
2023-04-18T17:43:28.007Z,51548.19
2023-04-18T17:46:03.597Z,51622.41
2023-04-18T17:48:32.173Z,51564.25
2023-04-18T17:51:00.566Z,51618.41
2023-04-18T17:53:31.586Z,51610.38
2023-04-18T17:56:00.788Z,51630.44
2023-04-18T17:58:29.320Z,51612.38
2023-04-18T18:00:59.098Z,51640.47
2023-04-18T18:03:28.001Z,51592.31
2023-04-18T18:05:56.456Z,51610.38
2023-04-18T18:08:25.617Z,51598.34
2023-04-18T18:10:54.133Z,51576.28
2023-04-18T18:13:22.565Z,51648.50
2023-04-18T18:15:50.910Z,51612.38
2023-04-18T18:18:31.326Z,51618.41
2023-04-18T18:20:59.953Z,51632.44
2023-04-18T18:23:28.361Z,51652.50
2023-04-18T18:25:56.748Z,51626.44
2023-04-18T18:28:25.367Z,51652.50
2023-04-18T18:30:58.919Z,51630.44
2023-04-18T18:33:35.240Z,51584.28
2023-04-18T18:36:03.911Z,51604.34
2023-04-18T18:38:32.766Z,51652.50
2023-04-18T18:41:03.602Z,51650.50
2023-04-18T18:43:35.589Z,51630.44
2023-04-18T18:46:04.181Z,51628.44
2023-04-18T18:48:36.839Z,51654.50
2023-04-18T18:51:05.497Z,51624.41
2023-04-18T18:53:33.917Z,51600.34
2023-04-18T18:56:02.649Z,51670.56
2023-04-18T18:58:31.167Z,51612.38
2023-04-18T19:01:02.217Z,51644.47
2023-04-18T19:03:30.941Z,51632.44
2023-04-18T19:06:03.711Z,51656.50
2023-04-18T19:08:32.212Z,51636.44
2023-04-18T19:11:00.759Z,51634.44
2023-04-18T19:13:29.218Z,51670.56
2023-04-18T19:15:57.669Z,51636.44
2023-04-18T19:18:26.450Z,51664.53
2023-04-18T19:20:54.813Z,51696.63
2023-04-18T19:23:25.264Z,51692.63
2023-04-18T19:25:53.619Z,51640.47
2023-04-18T19:28:22.774Z,51692.63
2023-04-18T19:30:51.246Z,51648.50
2023-04-18T19:33:20.493Z,51660.53
2023-04-18T19:35:48.888Z,51688.63
2023-04-18T19:38:17.378Z,51676.56
2023-04-18T19:40:47.510Z,51654.50
2023-04-18T19:43:15.973Z,51680.59
2023-04-18T19:45:44.373Z,51676.56
2023-04-18T19:48:12.838Z,51692.63
2023-04-18T19:50:42.164Z,51704.66
2023-04-18T19:53:10.544Z,51700.66
2023-04-18T19:55:39.078Z,51744.78
2023-04-18T19:58:08.778Z,51686.59
2023-04-18T20:00:37.771Z,51704.66
2023-04-18T20:03:06.339Z,51708.66
2023-04-18T20:05:35.068Z,51696.63
2023-04-18T20:08:03.513Z,51716.69
2023-04-18T20:10:32.977Z,51716.69
2023-04-18T20:13:02.132Z,51756.81
2023-04-18T20:15:32.153Z,51748.78
2023-04-18T20:18:00.642Z,51712.69
2023-04-18T20:20:29.341Z,51740.78
2023-04-18T20:22:57.880Z,51748.78
2023-04-18T20:25:26.457Z,51724.72
2023-04-18T20:27:54.929Z,51718.69
2023-04-18T20:30:23.526Z,51734.75
2023-04-18T20:32:53.394Z,51752.81
2023-04-18T20:35:22.095Z,51752.81
2023-04-18T20:37:50.736Z,51732.75
2023-04-18T20:40:19.181Z,51706.66
2023-04-18T20:42:47.628Z,51754.81
2023-04-18T20:45:16.073Z,51738.75
2023-04-18T20:47:44.580Z,51764.84
2023-04-18T20:50:16.126Z,51712.69
2023-04-18T20:52:44.586Z,51728.72
2023-04-18T20:55:13.363Z,51708.66
2023-04-18T20:57:41.737Z,51732.75
2023-04-18T21:00:11.037Z,51740.78
2023-04-18T21:02:39.590Z,51766.84
2023-04-18T21:05:08.828Z,51772.88
2023-04-18T21:07:38.634Z,51728.72
2023-04-18T21:10:08.140Z,51726.72
2023-04-18T21:12:36.585Z,51796.94
2023-04-18T21:15:05.722Z,51736.75
2023-04-18T21:17:34.182Z,51762.84
2023-04-18T21:20:03.509Z,51766.84
2023-04-18T21:22:31.868Z,51758.81
2023-04-18T21:25:01.703Z,51730.75
2023-04-18T21:27:30.088Z,51764.84
2023-04-18T21:29:58.430Z,51744.78
2023-04-18T21:32:26.831Z,51756.81
2023-04-18T21:34:56.242Z,51760.84
2023-04-18T21:37:25.454Z,51754.81
2023-04-18T21:39:53.832Z,51780.91
2023-04-18T21:42:23.568Z,51764.84
2023-04-18T21:44:52.019Z,51716.69
2023-04-18T21:47:20.540Z,51786.91
2023-04-18T21:49:50.586Z,51756.81
2023-04-18T21:52:19.026Z,51772.88
2023-04-18T21:54:47.679Z,51774.88
2023-04-18T21:57:16.104Z,51796.94
2023-04-18T21:59:45.797Z,51752.81
2023-04-18T22:02:14.299Z,51784.91
2023-04-18T22:04:44.021Z,51768.84
2023-04-18T22:07:13.382Z,51778.88
2023-04-18T22:09:41.768Z,51760.84
2023-04-18T22:12:10.100Z,51790.91
2023-04-18T22:14:40.225Z,51796.94
2023-04-18T22:17:09.960Z,51726.72
2023-04-18T22:19:38.355Z,51758.81
2023-04-18T22:22:06.739Z,51780.91
2023-04-18T22:24:35.132Z,51770.88
2023-04-18T22:27:03.959Z,51756.81
2023-04-18T22:29:32.411Z,51788.91
2023-04-18T22:32:00.801Z,51708.66
2023-04-18T22:34:30.818Z,51748.78
2023-04-18T22:36:59.662Z,51772.88
2023-04-18T22:39:28.055Z,51792.94
2023-04-18T22:41:56.496Z,51774.88
2023-04-18T22:44:24.899Z,51758.81
2023-04-18T22:46:54.493Z,51778.88
2023-04-18T22:49:23.146Z,51774.88
2023-04-18T22:51:54.199Z,51752.81
2023-04-18T22:54:22.646Z,51772.88
2023-04-18T22:56:51.295Z,51796.94
2023-04-18T22:59:19.822Z,51720.72
2023-04-18T23:01:48.349Z,51766.84
2023-04-18T23:04:17.070Z,51768.84
2023-04-18T23:06:45.695Z,51752.81
2023-04-18T23:09:19.427Z,51738.75
2023-04-18T23:11:47.893Z,51730.75
2023-04-18T23:14:16.707Z,51736.75
2023-04-18T23:16:45.328Z,51752.81
2023-04-18T23:19:13.736Z,51730.75
2023-04-18T23:21:42.210Z,51748.78
2023-04-18T23:24:12.194Z,51710.69
2023-04-18T23:26:42.127Z,51754.81
2023-04-18T23:29:10.558Z,51718.69
2023-04-18T23:31:39.015Z,51768.84
2023-04-18T23:34:07.425Z,51734.75
2023-04-18T23:36:36.837Z,51724.72
2023-04-18T23:39:05.400Z,51728.72
2023-04-18T23:41:34.161Z,51774.88
2023-04-18T23:44:03.995Z,51730.75
2023-04-18T23:46:34.283Z,51754.81
2023-04-18T23:49:04.422Z,51724.72
2023-04-18T23:51:32.792Z,51726.72
2023-04-18T23:54:01.335Z,51764.84
2023-04-18T23:56:30.240Z,51706.66
2023-04-18T23:58:58.907Z,51744.78
